This is the latest recevied weather packets stored in our database for station/object Ad4UU. If no packets are shown the sender has not sent any weather packets the latest 10 day(s).
| Time | Temp. | Humidity | Pressure | Rain* | Wind** | Luminosity | Snow |
|---|---|---|---|---|---|---|---|
| 1777695932 | 20.56° C | 93% | 1012.6 hPa | 0 mm | - | - | - |
| 1777694733 | 20.56° C | 91% | 1012.7 hPa | 0 mm | - | - | - |
| 1777693232 | 21.11° C | 90% | 1012.7 hPa | 0 mm | - | - | - |
| 1777689631 | 21.11° C | 89% | 1012.8 hPa | 0 mm | - | - | - |
| 1777688154 | 22.78° C | 86% | 1012.8 hPa | 0 mm | - | - | - |
| 1777687531 | 22.78° C | 85% | 1012.6 hPa | 0 mm | - | - | - |
| 1777685132 | 23.89° C | 82% | 1012.2 hPa | 0 mm | - | - | - |
| 1777684548 | 23.89° C | 81% | 1012.2 hPa | 0 mm | - | - | - |
| 1777684232 | 23.89° C | 80% | 1012.2 hPa | 0 mm | - | - | - |
| 1777683655 | 24.44° C | 80% | 1012.3 hPa | 0 mm | - | - | - |
| 1777682131 | 25° C | 76% | 1012.2 hPa | 0 mm | - | - | - |
| 1777681849 | 25° C | 76% | 1012.3 hPa | 0 mm | - | - | - |
| 1777680632 | 25.56° C | 72% | 1012.1 hPa | 0 mm | - | - | - |
| 1777680331 | 25.56° C | 72% | 1012 hPa | 0 mm | - | - | - |
| 1777680056 | 26.11° C | 71% | 1012 hPa | 0 mm | - | - | - |
| 1777679431 | 26.11° C | 71% | 1012 hPa | 0 mm | - | - | - |
| 1777678531 | 26.67° C | 69% | 1011.8 hPa | 0 mm | - | - | - |
| 1777674930 | 28.33° C | 61% | 1011.5 hPa | 0 mm | - | - | - |
| 1777673433 | 30° C | 56% | 1011.3 hPa | 0 mm | - | - | - |
| 1777672851 | 30° C | 57% | 1011.3 hPa | 0 mm | - | - | - |
| 1777670730 | 30.56° C | 53% | 1011.3 hPa | 0 mm | - | - | - |
| 1777669246 | 30° C | 54% | 1011.4 hPa | 0 mm | - | - | - |
| 1777666831 | 30° C | 57% | 1011.1 hPa | 0 mm | - | - | - |
| 1777666549 | 30° C | 56% | 1011.1 hPa | 0 mm | - | - | - |
| 1777665649 | 30° C | 55% | 1011.1 hPa | 0 mm | - | - | - |
* Rain latest hour (hover to see other rain measurements)
** Current wind speed in m/s (hover to see current wind gust speed)